sensor_id;sensor_type;location;lat;lon;timestamp;pressure;altitude;pressure_sealevel;temperature;humidity
62057;BME280;48016;50.284;18.860;2024-01-30T00:01:10;99931.94;;;-0.34;80.56
62057;BME280;48016;50.284;18.860;2024-01-30T00:03:48;99934.52;;;-0.34;80.59
62057;BME280;48016;50.284;18.860;2024-01-30T00:06:20;99929.90;;;-0.34;80.68
62057;BME280;48016;50.284;18.860;2024-01-30T00:08:50;99927.74;;;-0.33;80.52
62057;BME280;48016;50.284;18.860;2024-01-30T00:11:17;99927.78;;;-0.33;80.49
62057;BME280;48016;50.284;18.860;2024-01-30T00:13:43;99925.13;;;-0.35;80.53
62057;BME280;48016;50.284;18.860;2024-01-30T00:16:30;99926.87;;;-0.37;80.49
62057;BME280;48016;50.284;18.860;2024-01-30T00:18:57;99928.88;;;-0.38;80.58
62057;BME280;48016;50.284;18.860;2024-01-30T00:21:25;99927.66;;;-0.42;80.58
62057;BME280;48016;50.284;18.860;2024-01-30T00:23:51;99930.41;;;-0.45;80.48
62057;BME280;48016;50.284;18.860;2024-01-30T00:26:18;99930.69;;;-0.48;80.47
62057;BME280;48016;50.284;18.860;2024-01-30T00:28:45;99926.09;;;-0.50;80.42
62057;BME280;48016;50.284;18.860;2024-01-30T00:31:11;99925.36;;;-0.53;80.52
62057;BME280;48016;50.284;18.860;2024-01-30T00:33:39;99924.69;;;-0.55;80.50
62057;BME280;48016;50.284;18.860;2024-01-30T00:36:09;99922.83;;;-0.56;80.46
62057;BME280;48016;50.284;18.860;2024-01-30T00:38:37;99923.17;;;-0.56;80.51
62057;BME280;48016;50.284;18.860;2024-01-30T00:41:04;99926.70;;;-0.56;80.61
62057;BME280;48016;50.284;18.860;2024-01-30T00:43:31;99922.16;;;-0.55;80.53
62057;BME280;48016;50.284;18.860;2024-01-30T00:45:58;99916.11;;;-0.53;80.62
62057;BME280;48016;50.284;18.860;2024-01-30T00:48:25;99919.55;;;-0.50;80.63
62057;BME280;48016;50.284;18.860;2024-01-30T00:50:52;99918.03;;;-0.49;80.62
62057;BME280;48016;50.284;18.860;2024-01-30T00:53:18;99915.19;;;-0.45;80.67
62057;BME280;48016;50.284;18.860;2024-01-30T00:55:45;99918.21;;;-0.41;80.47
62057;BME280;48016;50.284;18.860;2024-01-30T00:58:12;99913.35;;;-0.38;80.47
62057;BME280;48016;50.284;18.860;2024-01-30T01:00:39;99909.99;;;-0.36;80.53
62057;BME280;48016;50.284;18.860;2024-01-30T01:03:06;99907.66;;;-0.34;80.49
62057;BME280;48016;50.284;18.860;2024-01-30T01:05:33;99906.59;;;-0.32;80.54
62057;BME280;48016;50.284;18.860;2024-01-30T01:07:59;99905.48;;;-0.30;80.37
62057;BME280;48016;50.284;18.860;2024-01-30T01:10:26;99903.80;;;-0.29;80.36
62057;BME280;48016;50.284;18.860;2024-01-30T01:12:53;99903.77;;;-0.29;80.39
62057;BME280;48016;50.284;18.860;2024-01-30T01:15:20;99898.21;;;-0.28;80.29
62057;BME280;48016;50.284;18.860;2024-01-30T01:17:47;99892.34;;;-0.28;80.27
62057;BME280;48016;50.284;18.860;2024-01-30T01:20:14;99894.17;;;-0.27;80.25
62057;BME280;48016;50.284;18.860;2024-01-30T01:22:41;99889.33;;;-0.26;80.16
62057;BME280;48016;50.284;18.860;2024-01-30T01:25:08;99883.69;;;-0.27;80.02
62057;BME280;48016;50.284;18.860;2024-01-30T01:27:36;99881.48;;;-0.26;80.13
62057;BME280;48016;50.284;18.860;2024-01-30T01:30:09;99881.81;;;-0.25;80.22
62057;BME280;48016;50.284;18.860;2024-01-30T01:32:37;99882.01;;;-0.26;80.14
62057;BME280;48016;50.284;18.860;2024-01-30T01:35:04;99882.20;;;-0.26;80.25
62057;BME280;48016;50.284;18.860;2024-01-30T01:37:34;99882.59;;;-0.26;80.11
62057;BME280;48016;50.284;18.860;2024-01-30T01:40:00;99886.14;;;-0.26;80.19
62057;BME280;48016;50.284;18.860;2024-01-30T01:42:27;99885.36;;;-0.25;80.28
62057;BME280;48016;50.284;18.860;2024-01-30T01:44:54;99881.59;;;-0.25;80.20
62057;BME280;48016;50.284;18.860;2024-01-30T01:47:20;99882.75;;;-0.24;80.13
62057;BME280;48016;50.284;18.860;2024-01-30T01:49:47;99880.35;;;-0.25;80.15
62057;BME280;48016;50.284;18.860;2024-01-30T01:52:15;99876.06;;;-0.25;80.19
62057;BME280;48016;50.284;18.860;2024-01-30T01:54:41;99875.65;;;-0.24;80.23
62057;BME280;48016;50.284;18.860;2024-01-30T01:57:08;99877.49;;;-0.23;80.13
62057;BME280;48016;50.284;18.860;2024-01-30T01:59:35;99874.20;;;-0.22;80.11
62057;BME280;48016;50.284;18.860;2024-01-30T02:02:03;99880.95;;;-0.22;80.08
62057;BME280;48016;50.284;18.860;2024-01-30T02:04:31;99879.86;;;-0.22;80.13
62057;BME280;48016;50.284;18.860;2024-01-30T02:06:58;99880.42;;;-0.22;80.15
62057;BME280;48016;50.284;18.860;2024-01-30T02:09:25;99881.25;;;-0.21;80.18
62057;BME280;48016;50.284;18.860;2024-01-30T02:11:51;99878.30;;;-0.22;80.12
62057;BME280;48016;50.284;18.860;2024-01-30T02:14:18;99876.46;;;-0.23;80.00
62057;BME280;48016;50.284;18.860;2024-01-30T02:16:45;99873.27;;;-0.23;80.22
62057;BME280;48016;50.284;18.860;2024-01-30T02:19:11;99869.95;;;-0.24;80.14
62057;BME280;48016;50.284;18.860;2024-01-30T02:21:39;99866.30;;;-0.25;80.03
62057;BME280;48016;50.284;18.860;2024-01-30T02:24:06;99864.86;;;-0.26;80.11
62057;BME280;48016;50.284;18.860;2024-01-30T02:26:32;99862.96;;;-0.28;80.08
62057;BME280;48016;50.284;18.860;2024-01-30T02:28:59;99861.06;;;-0.29;80.02
62057;BME280;48016;50.284;18.860;2024-01-30T02:31:26;99860.81;;;-0.30;80.21
62057;BME280;48016;50.284;18.860;2024-01-30T02:33:53;99859.31;;;-0.31;80.06
62057;BME280;48016;50.284;18.860;2024-01-30T02:36:19;99858.33;;;-0.32;80.19
62057;BME280;48016;50.284;18.860;2024-01-30T02:38:46;99859.23;;;-0.32;80.19
62057;BME280;48016;50.284;18.860;2024-01-30T02:41:12;99859.31;;;-0.33;80.18
62057;BME280;48016;50.284;18.860;2024-01-30T02:43:39;99860.64;;;-0.34;80.06
62057;BME280;48016;50.284;18.860;2024-01-30T02:46:06;99861.40;;;-0.34;80.19
62057;BME280;48016;50.284;18.860;2024-01-30T02:48:32;99862.68;;;-0.35;80.16
62057;BME280;48016;50.284;18.860;2024-01-30T02:50:59;99864.11;;;-0.35;80.12
62057;BME280;48016;50.284;18.860;2024-01-30T02:53:26;99862.54;;;-0.35;80.25
62057;BME280;48016;50.284;18.860;2024-01-30T02:55:53;99861.90;;;-0.36;80.19
62057;BME280;48016;50.284;18.860;2024-01-30T02:58:19;99860.20;;;-0.36;80.37
62057;BME280;48016;50.284;18.860;2024-01-30T03:00:46;99858.67;;;-0.37;80.23
62057;BME280;48016;50.284;18.860;2024-01-30T03:03:13;99858.90;;;-0.37;80.18
62057;BME280;48016;50.284;18.860;2024-01-30T03:05:40;99859.98;;;-0.38;80.37
62057;BME280;48016;50.284;18.860;2024-01-30T03:08:06;99854.19;;;-0.38;80.30
62057;BME280;48016;50.284;18.860;2024-01-30T03:10:33;99852.16;;;-0.39;80.39
62057;BME280;48016;50.284;18.860;2024-01-30T03:13:00;99853.06;;;-0.39;80.40
62057;BME280;48016;50.284;18.860;2024-01-30T03:15:27;99854.02;;;-0.40;80.41
62057;BME280;48016;50.284;18.860;2024-01-30T03:17:54;99853.02;;;-0.41;80.27
62057;BME280;48016;50.284;18.860;2024-01-30T03:20:20;99857.30;;;-0.41;80.37
62057;BME280;48016;50.284;18.860;2024-01-30T03:22:47;99855.28;;;-0.40;80.33
62057;BME280;48016;50.284;18.860;2024-01-30T03:25:14;99858.67;;;-0.41;80.39
62057;BME280;48016;50.284;18.860;2024-01-30T03:27:40;99855.91;;;-0.41;80.40
62057;BME280;48016;50.284;18.860;2024-01-30T03:30:08;99855.67;;;-0.42;80.34
62057;BME280;48016;50.284;18.860;2024-01-30T03:32:35;99853.21;;;-0.43;80.35
62057;BME280;48016;50.284;18.860;2024-01-30T03:35:01;99852.56;;;-0.44;80.43
62057;BME280;48016;50.284;18.860;2024-01-30T03:37:28;99850.34;;;-0.44;80.43
62057;BME280;48016;50.284;18.860;2024-01-30T03:39:55;99850.73;;;-0.45;80.45
62057;BME280;48016;50.284;18.860;2024-01-30T03:42:21;99848.00;;;-0.44;80.42
62057;BME280;48016;50.284;18.860;2024-01-30T03:44:49;99850.86;;;-0.44;80.36
62057;BME280;48016;50.284;18.860;2024-01-30T03:47:18;99849.14;;;-0.45;80.55
62057;BME280;48016;50.284;18.860;2024-01-30T03:49:46;99849.13;;;-0.45;80.38
62057;BME280;48016;50.284;18.860;2024-01-30T03:52:13;99848.34;;;-0.46;80.37
62057;BME280;48016;50.284;18.860;2024-01-30T03:54:39;99849.40;;;-0.46;80.39
62057;BME280;48016;50.284;18.860;2024-01-30T03:57:06;99850.51;;;-0.47;80.49
62057;BME280;48016;50.284;18.860;2024-01-30T03:59:33;99851.09;;;-0.47;80.44
62057;BME280;48016;50.284;18.860;2024-01-30T04:01:59;99848.16;;;-0.48;80.40
62057;BME280;48016;50.284;18.860;2024-01-30T04:04:26;99845.54;;;-0.48;80.37
62057;BME280;48016;50.284;18.860;2024-01-30T04:06:53;99841.69;;;-0.49;80.43
62057;BME280;48016;50.284;18.860;2024-01-30T04:09:20;99840.39;;;-0.48;80.27
62057;BME280;48016;50.284;18.860;2024-01-30T04:11:46;99843.38;;;-0.48;80.40
62057;BME280;48016;50.284;18.860;2024-01-30T04:14:13;99843.27;;;-0.49;80.26
62057;BME280;48016;50.284;18.860;2024-01-30T04:16:40;99841.02;;;-0.49;80.19
62057;BME280;48016;50.284;18.860;2024-01-30T04:19:06;99838.95;;;-0.50;80.33
62057;BME280;48016;50.284;18.860;2024-01-30T04:21:33;99836.56;;;-0.51;80.33
62057;BME280;48016;50.284;18.860;2024-01-30T04:24:00;99835.06;;;-0.52;80.35
62057;BME280;48016;50.284;18.860;2024-01-30T04:26:27;99842.48;;;-0.51;80.45
62057;BME280;48016;50.284;18.860;2024-01-30T04:28:54;99841.88;;;-0.51;80.38
62057;BME280;48016;50.284;18.860;2024-01-30T04:31:20;99839.42;;;-0.51;80.30
62057;BME280;48016;50.284;18.860;2024-01-30T04:33:47;99841.02;;;-0.51;80.32
62057;BME280;48016;50.284;18.860;2024-01-30T04:36:14;99836.60;;;-0.51;80.17
62057;BME280;48016;50.284;18.860;2024-01-30T04:38:40;99840.34;;;-0.52;80.20
62057;BME280;48016;50.284;18.860;2024-01-30T04:41:07;99841.46;;;-0.52;80.22
62057;BME280;48016;50.284;18.860;2024-01-30T04:43:34;99848.73;;;-0.52;80.19
62057;BME280;48016;50.284;18.860;2024-01-30T04:46:00;99845.71;;;-0.52;80.27
62057;BME280;48016;50.284;18.860;2024-01-30T04:48:28;99843.09;;;-0.52;80.07
62057;BME280;48016;50.284;18.860;2024-01-30T04:50:54;99842.44;;;-0.53;80.22
62057;BME280;48016;50.284;18.860;2024-01-30T04:53:22;99844.35;;;-0.54;80.17
62057;BME280;48016;50.284;18.860;2024-01-30T04:55:49;99845.05;;;-0.56;80.13
62057;BME280;48016;50.284;18.860;2024-01-30T04:58:15;99846.20;;;-0.55;80.13
62057;BME280;48016;50.284;18.860;2024-01-30T05:00:42;99848.47;;;-0.55;80.15
62057;BME280;48016;50.284;18.860;2024-01-30T05:03:09;99847.22;;;-0.55;80.08
62057;BME280;48016;50.284;18.860;2024-01-30T05:05:35;99844.21;;;-0.55;79.98
62057;BME280;48016;50.284;18.860;2024-01-30T05:08:02;99843.93;;;-0.56;80.14
62057;BME280;48016;50.284;18.860;2024-01-30T05:10:29;99841.88;;;-0.56;79.96
62057;BME280;48016;50.284;18.860;2024-01-30T05:12:56;99844.80;;;-0.57;79.94
62057;BME280;48016;50.284;18.860;2024-01-30T05:15:22;99844.97;;;-0.59;79.89
62057;BME280;48016;50.284;18.860;2024-01-30T05:17:49;99847.01;;;-0.60;79.88
62057;BME280;48016;50.284;18.860;2024-01-30T05:20:16;99850.40;;;-0.62;79.79
62057;BME280;48016;50.284;18.860;2024-01-30T05:22:43;99851.27;;;-0.63;79.95
62057;BME280;48016;50.284;18.860;2024-01-30T05:25:14;99841.85;;;-0.65;79.93
62057;BME280;48016;50.284;18.860;2024-01-30T05:27:41;99848.17;;;-0.67;79.87
62057;BME280;48016;50.284;18.860;2024-01-30T05:30:08;99846.39;;;-0.66;79.88
62057;BME280;48016;50.284;18.860;2024-01-30T05:32:35;99847.98;;;-0.66;79.87
62057;BME280;48016;50.284;18.860;2024-01-30T05:35:02;99847.42;;;-0.68;79.81
62057;BME280;48016;50.284;18.860;2024-01-30T05:37:30;99851.25;;;-0.67;79.69
62057;BME280;48016;50.284;18.860;2024-01-30T05:39:57;99849.91;;;-0.66;79.78
62057;BME280;48016;50.284;18.860;2024-01-30T05:42:24;99851.95;;;-0.67;79.74
62057;BME280;48016;50.284;18.860;2024-01-30T05:44:51;99854.66;;;-0.68;79.72
62057;BME280;48016;50.284;18.860;2024-01-30T05:47:17;99855.16;;;-0.67;79.75
62057;BME280;48016;50.284;18.860;2024-01-30T05:49:44;99855.36;;;-0.68;79.61
62057;BME280;48016;50.284;18.860;2024-01-30T05:52:11;99852.96;;;-0.69;79.64
62057;BME280;48016;50.284;18.860;2024-01-30T05:54:37;99848.23;;;-0.69;79.62
62057;BME280;48016;50.284;18.860;2024-01-30T05:57:04;99849.91;;;-0.68;79.55
62057;BME280;48016;50.284;18.860;2024-01-30T05:59:32;99848.44;;;-0.70;79.69
62057;BME280;48016;50.284;18.860;2024-01-30T06:01:58;99848.63;;;-0.70;79.67
62057;BME280;48016;50.284;18.860;2024-01-30T06:04:25;99846.96;;;-0.69;79.69
62057;BME280;48016;50.284;18.860;2024-01-30T06:06:52;99846.73;;;-0.68;79.57
62057;BME280;48016;50.284;18.860;2024-01-30T06:09:18;99847.83;;;-0.69;79.64
62057;BME280;48016;50.284;18.860;2024-01-30T06:11:45;99849.24;;;-0.69;79.49
62057;BME280;48016;50.284;18.860;2024-01-30T06:14:12;99847.48;;;-0.69;79.60
62057;BME280;48016;50.284;18.860;2024-01-30T06:16:38;99847.92;;;-0.68;79.55
62057;BME280;48016;50.284;18.860;2024-01-30T06:19:05;99845.10;;;-0.66;79.51
62057;BME280;48016;50.284;18.860;2024-01-30T06:21:32;99843.31;;;-0.66;79.51
62057;BME280;48016;50.284;18.860;2024-01-30T06:24:03;99846.11;;;-0.65;79.58
62057;BME280;48016;50.284;18.860;2024-01-30T06:26:30;99844.48;;;-0.65;79.48
62057;BME280;48016;50.284;18.860;2024-01-30T06:28:56;99845.88;;;-0.65;79.46
62057;BME280;48016;50.284;18.860;2024-01-30T06:31:23;99847.44;;;-0.64;79.48
62057;BME280;48016;50.284;18.860;2024-01-30T06:33:50;99851.18;;;-0.63;79.51
62057;BME280;48016;50.284;18.860;2024-01-30T06:36:17;99849.50;;;-0.62;79.32
62057;BME280;48016;50.284;18.860;2024-01-30T06:38:43;99852.33;;;-0.60;79.35
62057;BME280;48016;50.284;18.860;2024-01-30T06:41:10;99851.55;;;-0.57;79.38
62057;BME280;48016;50.284;18.860;2024-01-30T06:43:37;99851.52;;;-0.53;79.41
62057;BME280;48016;50.284;18.860;2024-01-30T06:46:03;99849.52;;;-0.51;79.25
62057;BME280;48016;50.284;18.860;2024-01-30T06:48:30;99853.92;;;-0.47;79.27
62057;BME280;48016;50.284;18.860;2024-01-30T06:50:57;99854.02;;;-0.42;79.33
62057;BME280;48016;50.284;18.860;2024-01-30T06:53:24;99856.28;;;-0.36;79.33
62057;BME280;48016;50.284;18.860;2024-01-30T06:55:52;99854.38;;;-0.26;79.12
62057;BME280;48016;50.284;18.860;2024-01-30T06:58:18;99852.41;;;-0.14;79.09
62057;BME280;48016;50.284;18.860;2024-01-30T07:00:45;99855.55;;;-0.03;78.78
62057;BME280;48016;50.284;18.860;2024-01-30T07:03:12;99860.95;;;0.07;78.73
62057;BME280;48016;50.284;18.860;2024-01-30T07:05:38;99862.02;;;0.16;78.54
62057;BME280;48016;50.284;18.860;2024-01-30T07:08:05;99860.39;;;0.22;78.45
62057;BME280;48016;50.284;18.860;2024-01-30T07:10:32;99858.75;;;0.24;78.43
62057;BME280;48016;50.284;18.860;2024-01-30T07:13:00;99858.20;;;0.26;78.25
62057;BME280;48016;50.284;18.860;2024-01-30T07:15:27;99860.86;;;0.30;78.16
62057;BME280;48016;50.284;18.860;2024-01-30T07:17:54;99865.02;;;0.33;78.24
62057;BME280;48016;50.284;18.860;2024-01-30T07:20:20;99872.02;;;0.37;78.17
62057;BME280;48016;50.284;18.860;2024-01-30T07:22:47;99867.76;;;0.43;78.24
62057;BME280;48016;50.284;18.860;2024-01-30T07:25:14;99871.79;;;0.51;78.36
62057;BME280;48016;50.284;18.860;2024-01-30T07:27:41;99868.57;;;0.60;78.19
62057;BME280;48016;50.284;18.860;2024-01-30T07:30:08;99866.52;;;0.73;78.17
62057;BME280;48016;50.284;18.860;2024-01-30T07:32:35;99866.02;;;0.87;78.01
62057;BME280;48016;50.284;18.860;2024-01-30T07:35:02;99864.65;;;1.01;78.22
62057;BME280;48016;50.284;18.860;2024-01-30T07:37:28;99862.31;;;1.17;77.96
62057;BME280;48016;50.284;18.860;2024-01-30T07:39:55;99862.49;;;1.30;77.67
62057;BME280;48016;50.284;18.860;2024-01-30T07:42:22;99859.91;;;1.39;77.41
62057;BME280;48016;50.284;18.860;2024-01-30T07:44:49;99865.27;;;1.45;77.34
62057;BME280;48016;50.284;18.860;2024-01-30T07:47:16;99869.92;;;1.53;76.83
62057;BME280;48016;50.284;18.860;2024-01-30T07:49:42;99869.79;;;1.60;76.76
62057;BME280;48016;50.284;18.860;2024-01-30T07:52:09;99871.86;;;1.67;76.54
62057;BME280;48016;50.284;18.860;2024-01-30T07:54:36;99873.16;;;1.75;76.17
62057;BME280;48016;50.284;18.860;2024-01-30T07:57:05;99870.06;;;1.81;76.01
62057;BME280;48016;50.284;18.860;2024-01-30T07:59:32;99870.80;;;1.88;75.88
62057;BME280;48016;50.284;18.860;2024-01-30T08:01:58;99872.14;;;1.93;75.75
62057;BME280;48016;50.284;18.860;2024-01-30T08:04:25;99868.81;;;2.05;75.41
62057;BME280;48016;50.284;18.860;2024-01-30T08:06:51;99864.77;;;2.16;75.61
62057;BME280;48016;50.284;18.860;2024-01-30T08:09:18;99870.61;;;2.24;75.32
62057;BME280;48016;50.284;18.860;2024-01-30T08:11:45;99870.30;;;2.30;75.15
62057;BME280;48016;50.284;18.860;2024-01-30T08:14:11;99872.14;;;2.36;74.74
62057;BME280;48016;50.284;18.860;2024-01-30T08:16:40;99872.80;;;2.40;74.73
62057;BME280;48016;50.284;18.860;2024-01-30T08:19:06;99875.84;;;2.46;74.63
62057;BME280;48016;50.284;18.860;2024-01-30T08:21:33;99877.86;;;2.54;74.29
62057;BME280;48016;50.284;18.860;2024-01-30T08:24:03;99879.98;;;2.62;74.33
62057;BME280;48016;50.284;18.860;2024-01-30T08:26:32;99881.52;;;2.66;74.35
62057;BME280;48016;50.284;18.860;2024-01-30T08:28:59;99880.08;;;2.69;74.40
62057;BME280;48016;50.284;18.860;2024-01-30T08:31:26;99877.30;;;2.74;73.99
62057;BME280;48016;50.284;18.860;2024-01-30T08:33:53;99873.80;;;2.78;73.98
62057;BME280;48016;50.284;18.860;2024-01-30T08:36:20;99875.77;;;2.83;73.72
62057;BME280;48016;50.284;18.860;2024-01-30T08:38:46;99870.10;;;2.86;73.14
62057;BME280;48016;50.284;18.860;2024-01-30T08:41:13;99869.98;;;2.89;73.21
62057;BME280;48016;50.284;18.860;2024-01-30T08:43:40;99867.27;;;2.94;72.78
62057;BME280;48016;50.284;18.860;2024-01-30T08:46:07;99870.71;;;3.02;72.78
62057;BME280;48016;50.284;18.860;2024-01-30T08:48:35;99872.94;;;3.09;72.63
62057;BME280;48016;50.284;18.860;2024-01-30T08:51:02;99873.87;;;3.17;72.56
62057;BME280;48016;50.284;18.860;2024-01-30T08:53:29;99877.41;;;3.22;72.18
62057;BME280;48016;50.284;18.860;2024-01-30T08:55:56;99873.89;;;3.26;71.86
62057;BME280;48016;50.284;18.860;2024-01-30T08:58:25;99875.89;;;3.31;71.69
62057;BME280;48016;50.284;18.860;2024-01-30T09:00:52;99872.23;;;3.38;71.79
62057;BME280;48016;50.284;18.860;2024-01-30T09:03:19;99874.10;;;3.45;71.93
62057;BME280;48016;50.284;18.860;2024-01-30T09:05:46;99867.20;;;3.51;71.71
62057;BME280;48016;50.284;18.860;2024-01-30T09:08:12;99871.59;;;3.56;71.68
62057;BME280;48016;50.284;18.860;2024-01-30T09:10:39;99868.47;;;3.62;71.48
62057;BME280;48016;50.284;18.860;2024-01-30T09:13:07;99870.99;;;3.67;71.28
62057;BME280;48016;50.284;18.860;2024-01-30T09:15:34;99869.65;;;3.72;71.22
62057;BME280;48016;50.284;18.860;2024-01-30T09:18:01;99868.45;;;3.77;71.16
62057;BME280;48016;50.284;18.860;2024-01-30T09:20:28;99871.30;;;3.80;70.94
62057;BME280;48016;50.284;18.860;2024-01-30T09:22:55;99870.04;;;3.83;70.40
62057;BME280;48016;50.284;18.860;2024-01-30T09:25:21;99868.35;;;3.89;70.16
62057;BME280;48016;50.284;18.860;2024-01-30T09:27:48;99870.90;;;3.96;70.20
62057;BME280;48016;50.284;18.860;2024-01-30T09:30:15;99864.95;;;4.01;69.85
62057;BME280;48016;50.284;18.860;2024-01-30T09:32:42;99864.35;;;4.08;69.84
62057;BME280;48016;50.284;18.860;2024-01-30T09:35:09;99861.05;;;4.14;69.53
62057;BME280;48016;50.284;18.860;2024-01-30T09:37:36;99866.85;;;4.20;69.40
62057;BME280;48016;50.284;18.860;2024-01-30T09:40:03;99868.69;;;4.25;69.66
62057;BME280;48016;50.284;18.860;2024-01-30T09:42:35;99871.30;;;4.30;69.40
62057;BME280;48016;50.284;18.860;2024-01-30T09:45:03;99867.41;;;4.38;69.39
62057;BME280;48016;50.284;18.860;2024-01-30T09:47:41;99868.55;;;4.43;69.24
62057;BME280;48016;50.284;18.860;2024-01-30T09:50:10;99862.56;;;4.47;68.79
62057;BME280;48016;50.284;18.860;2024-01-30T09:52:37;99861.68;;;4.53;68.82
62057;BME280;48016;50.284;18.860;2024-01-30T09:55:06;99858.62;;;4.60;68.61
62057;BME280;48016;50.284;18.860;2024-01-30T09:57:36;99852.73;;;4.64;68.20
62057;BME280;48016;50.284;18.860;2024-01-30T10:00:04;99852.11;;;4.71;68.22
62057;BME280;48016;50.284;18.860;2024-01-30T10:02:35;99847.05;;;4.78;68.22
62057;BME280;48016;50.284;18.860;2024-01-30T10:05:02;99848.42;;;4.83;67.42
62057;BME280;48016;50.284;18.860;2024-01-30T10:07:29;99846.98;;;4.83;66.63
62057;BME280;48016;50.284;18.860;2024-01-30T10:09:57;99850.97;;;4.88;67.01
62057;BME280;48016;50.284;18.860;2024-01-30T10:12:27;99839.54;;;4.93;67.46
62057;BME280;48016;50.284;18.860;2024-01-30T10:14:56;99836.06;;;4.96;67.17
62057;BME280;48016;50.284;18.860;2024-01-30T10:17:25;99831.84;;;5.01;66.77
62057;BME280;48016;50.284;18.860;2024-01-30T10:19:53;99834.58;;;5.05;66.70
62057;BME280;48016;50.284;18.860;2024-01-30T10:22:20;99831.44;;;5.09;66.76
62057;BME280;48016;50.284;18.860;2024-01-30T10:24:48;99830.29;;;5.12;65.85
62057;BME280;48016;50.284;18.860;2024-01-30T10:27:15;99828.64;;;5.17;66.14
62057;BME280;48016;50.284;18.860;2024-01-30T10:29:41;99830.71;;;5.21;65.84
62057;BME280;48016;50.284;18.860;2024-01-30T10:32:08;99827.35;;;5.25;65.85
62057;BME280;48016;50.284;18.860;2024-01-30T10:34:35;99827.17;;;5.29;65.48
62057;BME280;48016;50.284;18.860;2024-01-30T10:37:09;99817.13;;;5.33;65.09
62057;BME280;48016;50.284;18.860;2024-01-30T10:39:43;99820.11;;;5.37;64.87
62057;BME280;48016;50.284;18.860;2024-01-30T10:42:18;99815.77;;;5.42;64.78
62057;BME280;48016;50.284;18.860;2024-01-30T10:47:30;99807.85;;;5.52;65.16
62057;BME280;48016;50.284;18.860;2024-01-30T10:50:00;99804.23;;;5.55;64.49
62057;BME280;48016;50.284;18.860;2024-01-30T10:52:31;99803.82;;;5.59;64.65
62057;BME280;48016;50.284;18.860;2024-01-30T10:54:59;99800.77;;;5.61;64.43
62057;BME280;48016;50.284;18.860;2024-01-30T10:57:26;99802.34;;;5.65;64.26
62057;BME280;48016;50.284;18.860;2024-01-30T10:59:56;99797.79;;;5.67;63.94
62057;BME280;48016;50.284;18.860;2024-01-30T11:02:24;99798.80;;;5.69;63.39
62057;BME280;48016;50.284;18.860;2024-01-30T11:04:59;99793.11;;;5.73;63.70
62057;BME280;48016;50.284;18.860;2024-01-30T11:07:27;99790.41;;;5.75;63.08
62057;BME280;48016;50.284;18.860;2024-01-30T11:12:25;99785.54;;;5.78;63.12
62057;BME280;48016;50.284;18.860;2024-01-30T11:15:07;99786.06;;;5.81;63.42
62057;BME280;48016;50.284;18.860;2024-01-30T11:17:41;99787.98;;;5.84;63.51
62057;BME280;48016;50.284;18.860;2024-01-30T11:20:16;99785.61;;;5.88;63.26
62057;BME280;48016;50.284;18.860;2024-01-30T11:22:45;99786.42;;;5.90;63.17
62057;BME280;48016;50.284;18.860;2024-01-30T11:25:16;99784.46;;;5.92;62.94
62057;BME280;48016;50.284;18.860;2024-01-30T11:27:44;99786.60;;;5.95;63.19
62057;BME280;48016;50.284;18.860;2024-01-30T11:30:21;99783.52;;;5.99;63.10
62057;BME280;48016;50.284;18.860;2024-01-30T11:33:04;99782.67;;;6.02;62.98
62057;BME280;48016;50.284;18.860;2024-01-30T11:35:36;99778.52;;;6.04;63.00
62057;BME280;48016;50.284;18.860;2024-01-30T11:38:04;99776.56;;;6.05;62.60
62057;BME280;48016;50.284;18.860;2024-01-30T11:40:32;99768.09;;;6.07;62.44
62057;BME280;48016;50.284;18.860;2024-01-30T11:43:01;99767.71;;;6.10;62.81
62057;BME280;48016;50.284;18.860;2024-01-30T11:45:29;99766.04;;;6.13;62.75
62057;BME280;48016;50.284;18.860;2024-01-30T11:47:56;99753.30;;;6.18;62.36
62057;BME280;48016;50.284;18.860;2024-01-30T11:50:24;99755.41;;;6.18;62.12
62057;BME280;48016;50.284;18.860;2024-01-30T11:52:51;99750.36;;;6.20;62.00
62057;BME280;48016;50.284;18.860;2024-01-30T11:55:18;99751.57;;;6.21;61.78
62057;BME280;48016;50.284;18.860;2024-01-30T11:57:46;99747.29;;;6.23;62.07
62057;BME280;48016;50.284;18.860;2024-01-30T12:00:17;99749.27;;;6.23;61.37
62057;BME280;48016;50.284;18.860;2024-01-30T12:02:50;99740.61;;;6.25;62.02
62057;BME280;48016;50.284;18.860;2024-01-30T12:05:19;99734.85;;;6.26;61.96
62057;BME280;48016;50.284;18.860;2024-01-30T12:07:46;99730.08;;;6.30;62.19
62057;BME280;48016;50.284;18.860;2024-01-30T12:10:14;99721.48;;;6.31;62.06
62057;BME280;48016;50.284;18.860;2024-01-30T12:12:48;99720.63;;;6.31;61.33
62057;BME280;48016;50.284;18.860;2024-01-30T12:15:16;99721.27;;;6.29;61.31
62057;BME280;48016;50.284;18.860;2024-01-30T12:17:43;99715.73;;;6.27;61.27
62057;BME280;48016;50.284;18.860;2024-01-30T12:20:15;99712.27;;;6.25;60.94
62057;BME280;48016;50.284;18.860;2024-01-30T12:22:46;99707.85;;;6.25;60.91
62057;BME280;48016;50.284;18.860;2024-01-30T12:25:15;99711.80;;;6.23;60.91
62057;BME280;48016;50.284;18.860;2024-01-30T12:27:44;99711.11;;;6.24;60.94
62057;BME280;48016;50.284;18.860;2024-01-30T12:30:12;99704.98;;;6.27;61.17
62057;BME280;48016;50.284;18.860;2024-01-30T12:32:47;99699.19;;;6.31;61.16
62057;BME280;48016;50.284;18.860;2024-01-30T12:35:15;99695.63;;;6.33;61.38
62057;BME280;48016;50.284;18.860;2024-01-30T12:37:44;99693.05;;;6.32;60.66
62057;BME280;48016;50.284;18.860;2024-01-30T12:40:11;99690.23;;;6.32;60.70
62057;BME280;48016;50.284;18.860;2024-01-30T12:42:41;99688.06;;;6.34;60.83
62057;BME280;48016;50.284;18.860;2024-01-30T12:45:09;99685.76;;;6.35;60.83
62057;BME280;48016;50.284;18.860;2024-01-30T12:47:36;99686.85;;;6.37;60.80
62057;BME280;48016;50.284;18.860;2024-01-30T12:50:03;99686.30;;;6.37;60.78
62057;BME280;48016;50.284;18.860;2024-01-30T12:52:30;99684.77;;;6.36;60.46
62057;BME280;48016;50.284;18.860;2024-01-30T12:54:57;99684.56;;;6.36;60.86
62057;BME280;48016;50.284;18.860;2024-01-30T12:57:24;99683.61;;;6.37;60.65
62057;BME280;48016;50.284;18.860;2024-01-30T12:59:51;99679.15;;;6.37;60.78
62057;BME280;48016;50.284;18.860;2024-01-30T13:02:18;99683.23;;;6.35;60.73